Time;durP1;ratioP1;P1;durP2;ratioP2;P2;SDS_P1;SDS_P2;PMS_P1;PMS_P2;Temp;Humidity;BMP_temperature;BMP_pressure;BME280_temperature;BME280_humidity;BME280_pressure;Samples;Min_cycle;Max_cycle;Signal;HPM_P1;HPM_P2
2022/01/19 00:02:16;;;;;;;22.38;13.40;;;15.30;75.10;;;;;;4084698;28;20047;-66
2022/01/19 00:04:41;;;;;;;22.52;12.55;;;15.20;75.00;;;;;;4078120;28;20103;-66
2022/01/19 00:07:04;;;;;;;19.95;12.50;;;15.20;74.90;;;;;;4081080;28;20098;-67
2022/01/19 00:09:27;;;;;;;20.50;11.50;;;15.20;74.90;;;;;;4094548;28;20055;-67
2022/01/19 00:11:50;;;;;;;19.92;12.90;;;15.20;74.80;;;;;;4094524;28;20172;-68
2022/01/19 00:14:13;;;;;;;20.70;12.65;;;15.30;74.80;;;;;;4093898;28;20411;-67
2022/01/19 00:16:37;;;;;;;21.80;13.70;;;15.30;74.80;;;;;;4094075;28;20448;-67
2022/01/19 00:19:01;;;;;;;22.13;14.27;;;15.20;74.60;;;;;;4094113;28;20059;-68
2022/01/19 00:21:24;;;;;;;22.45;13.55;;;15.30;74.80;;;;;;4093882;28;20116;-68
2022/01/19 00:23:47;;;;;;;21.63;12.68;;;15.20;74.80;;;;;;4079655;28;20107;-68
2022/01/19 00:26:10;;;;;;;21.90;13.90;;;15.30;74.80;;;;;;4078565;29;20448;-67
2022/01/19 00:28:33;;;;;;;21.67;13.25;;;15.20;74.80;;;;;;4077064;29;20483;-67
2022/01/19 00:30:57;;;;;;;22.60;13.30;;;15.30;74.90;;;;;;4079462;28;20048;-67
2022/01/19 00:33:21;;;;;;;26.38;14.55;;;15.30;75.00;;;;;;4091475;28;20126;-67
2022/01/19 00:35:45;;;;;;;24.73;14.07;;;15.30;75.10;;;;;;4094013;28;20110;-67
2022/01/19 00:38:09;;;;;;;25.67;14.27;;;15.40;74.70;;;;;;4093056;28;20047;-67
2022/01/19 00:40:33;;;;;;;27.25;14.88;;;15.50;75.20;;;;;;4094147;28;20039;-67
2022/01/19 00:42:56;;;;;;;30.27;16.35;;;15.50;73.90;;;;;;4084756;29;20056;-67
2022/01/19 00:45:19;;;;;;;31.52;16.75;;;15.60;73.60;;;;;;4078846;29;20500;-67
2022/01/19 00:47:43;;;;;;;27.92;15.68;;;15.60;73.40;;;;;;4078850;29;20110;-67
2022/01/19 00:50:10;;;;;;;30.85;14.88;;;15.60;73.30;;;;;;4078687;29;20614;-67
2022/01/19 00:52:36;;;;;;;32.25;16.52;;;15.60;73.30;;;;;;4090604;28;20492;-67
2022/01/19 00:54:58;;;;;;;30.70;15.27;;;15.60;73.40;;;;;;4094246;28;20114;-67
2022/01/19 00:57:21;;;;;;;34.28;17.20;;;15.70;73.40;;;;;;4084584;28;20055;-67
2022/01/19 00:59:44;;;;;;;34.67;18.40;;;15.70;73.20;;;;;;4078192;29;20056;-67
2022/01/19 01:02:08;;;;;;;35.47;17.48;;;15.70;73.00;;;;;;4083291;29;20044;-67
2022/01/19 01:04:33;;;;;;;33.20;17.27;;;15.70;73.10;;;;;;4078706;29;20374;-67
2022/01/19 01:06:56;;;;;;;34.70;17.83;;;15.70;73.10;;;;;;4077052;29;20468;-67
2022/01/19 01:09:21;;;;;;;30.67;15.50;;;15.60;73.20;;;;;;4092226;28;20129;-67
2022/01/19 01:11:58;;;;;;;33.33;16.75;;;15.70;73.30;;;;;;4106057;28;20051;-67
2022/01/19 01:18:16;;;;;;;35.15;19.00;;;15.70;73.10;;;;;;4089785;28;20522;-67
2022/01/19 01:19:55;;;;;;;45.15;19.23;;;15.70;73.10;;;;;;4080455;29;20051;-66
2022/01/19 01:22:18;;;;;;;39.33;20.00;;;15.60;73.10;;;;;;4088929;28;20047;-67
2022/01/19 01:24:43;;;;;;;38.97;18.58;;;15.60;73.10;;;;;;4095564;28;20514;-67
2022/01/19 01:27:07;;;;;;;30.75;16.40;;;15.60;73.30;;;;;;4093347;28;20480;-67
2022/01/19 01:29:30;;;;;;;31.70;17.52;;;15.60;73.20;;;;;;4080965;29;20559;-67
2022/01/19 01:31:53;;;;;;;35.05;19.05;;;15.70;73.10;;;;;;4093277;28;20521;-66
2022/01/19 01:34:16;;;;;;;33.88;17.65;;;15.70;73.90;;;;;;4097153;28;20051;-66
2022/01/19 01:36:39;;;;;;;37.22;16.73;;;15.70;72.90;;;;;;4106380;28;20062;-67
2022/01/19 01:39:02;;;;;;;38.80;17.98;;;15.70;73.00;;;;;;4088754;28;20043;-67
2022/01/19 01:41:26;;;;;;;34.25;16.98;;;15.70;72.90;;;;;;4095123;28;20444;-67
2022/01/19 01:44:12;;;;;;;28.80;15.15;;;15.70;72.80;;;;;;4084614;28;20447;-67
2022/01/19 01:46:44;;;;;;;35.28;18.67;;;15.70;72.80;;;;;;4096549;28;20051;-67
2022/01/19 01:49:16;;;;;;;36.17;17.98;;;15.70;72.80;;;;;;4096110;28;20099;-67
2022/01/19 01:54:20;;;;;;;36.10;17.13;;;15.70;72.80;;;;;;4080386;29;20912;-67
2022/01/19 01:56:44;;;;;;;36.17;17.42;;;15.70;72.90;;;;;;4098356;28;20093;-68
2022/01/19 01:59:09;;;;;;;35.67;18.33;;;15.60;72.90;;;;;;4087144;28;20452;-67
2022/01/19 02:02:07;;;;;;;34.00;17.25;;;15.60;73.10;;;;;;4079716;29;20051;-67
2022/01/19 02:04:33;;;;;;;31.70;17.65;;;15.60;73.30;;;;;;4080454;29;20484;-67
2022/01/19 02:07:29;;;;;;;35.40;17.20;;;15.60;73.20;;;;;;4098391;28;20054;-67
2022/01/19 02:09:58;;;;;;;33.65;16.80;;;15.60;73.10;;;;;;4094239;28;20051;-68
2022/01/19 02:23:24;;;;;;;34.90;16.95;;;15.90;71.90;;;;;;4107625;28;20089;-67
2022/01/19 02:25:49;;;;;;;36.97;17.10;;;16.00;71.40;;;;;;4095717;28;20499;-67
2022/01/19 02:31:32;;;;;;;36.75;17.05;;;16.10;71.20;;;;;;4090265;28;20085;-67
2022/01/19 02:36:53;;;;;;;38.47;16.98;;;16.10;71.00;;;;;;4088205;28;20106;-68
2022/01/19 02:41:58;;;;;;;38.55;16.05;;;16.20;70.70;;;;;;4095495;28;20114;-67
2022/01/19 02:46:30;;;;;;;30.05;13.30;;;16.20;70.90;;;;;;4094172;28;20055;-67
2022/01/19 02:49:57;;;;;;;40.83;18.60;;;16.20;70.60;;;;;;4079189;28;20052;-67
2022/01/19 02:52:24;;;;;;;43.60;17.35;;;16.20;70.60;;;;;;4080259;29;20507;-67
2022/01/19 02:54:48;;;;;;;37.55;17.98;;;16.20;71.60;;;;;;4091299;28;20075;-67
2022/01/19 02:57:13;;;;;;;34.53;16.58;;;16.10;70.70;;;;;;4091698;28;20098;-68
2022/01/19 02:59:46;;;;;;;42.33;17.27;;;16.10;70.70;;;;;;4079686;29;20044;-68
2022/01/19 03:10:24;;;;;;;39.25;18.08;;;16.00;71.40;;;;;;4060810;29;20059;-67
2022/01/19 03:12:47;;;;;;;34.83;16.92;;;16.10;71.20;;;;;;4076800;29;20040;-68
2022/01/19 03:15:12;;;;;;;34.63;15.48;;;16.10;70.90;;;;;;4091960;28;20077;-68
2022/01/19 03:17:35;;;;;;;32.75;16.05;;;16.20;70.70;;;;;;4079592;29;20055;-67
2022/01/19 03:19:58;;;;;;;31.58;16.55;;;16.20;70.60;;;;;;4091588;29;20162;-67
2022/01/19 03:22:26;;;;;;;31.70;16.25;;;16.20;70.50;;;;;;4083247;28;20058;-68
2022/01/19 03:24:52;;;;;;;34.28;17.23;;;16.20;70.50;;;;;;4092905;28;20471;-68
2022/01/19 03:27:15;;;;;;;31.75;15.45;;;16.20;70.40;;;;;;4095364;28;20121;-68
2022/01/19 03:29:47;;;;;;;36.50;17.85;;;16.20;70.30;;;;;;4092460;28;22726;-67
2022/01/19 03:32:10;;;;;;;32.33;17.52;;;16.10;70.30;;;;;;4093944;28;20447;-67
2022/01/19 03:34:33;;;;;;;36.28;17.20;;;16.10;70.50;;;;;;4078046;29;20107;-67
2022/01/19 03:36:58;;;;;;;38.25;18.85;;;16.00;70.60;;;;;;4091333;28;20114;-68
2022/01/19 03:39:21;;;;;;;38.55;18.05;;;16.00;70.90;;;;;;4091983;28;20051;-67
2022/01/19 03:41:46;;;;;;;40.00;17.85;;;16.00;71.10;;;;;;4087531;28;20051;-67
2022/01/19 03:44:10;;;;;;;41.38;17.58;;;16.00;71.10;;;;;;4093993;28;20059;-68
2022/01/19 03:46:34;;;;;;;39.25;19.40;;;16.00;71.10;;;;;;4093742;28;20059;-67
2022/01/19 03:49:08;;;;;;;48.13;20.77;;;16.00;71.20;;;;;;4093849;28;20059;-67
2022/01/19 03:51:31;;;;;;;36.53;18.23;;;16.10;71.00;;;;;;4093742;28;20047;-67
2022/01/19 03:53:54;;;;;;;38.08;18.60;;;16.20;70.50;;;;;;4094511;28;20054;-68
2022/01/19 03:56:18;;;;;;;39.53;18.77;;;16.30;70.00;;;;;;4091836;28;20079;-68
2022/01/19 03:58:42;;;;;;;37.17;19.50;;;16.30;69.70;;;;;;4106920;28;20058;-68
2022/01/19 04:01:06;;;;;;;31.17;17.77;;;16.30;69.50;;;;;;4106441;28;20046;-67
2022/01/19 04:03:45;;;;;;;33.10;18.23;;;16.40;69.50;;;;;;4093210;28;20055;-68
2022/01/19 04:06:17;;;;;;;34.25;18.02;;;16.40;69.30;;;;;;4106166;28;20095;-68
2022/01/19 04:08:40;;;;;;;39.88;19.77;;;16.40;69.30;;;;;;4106680;28;20093;-68
2022/01/19 04:11:04;;;;;;;38.13;18.75;;;16.30;69.40;;;;;;4094573;28;20047;-68
2022/01/19 04:13:43;;;;;;;40.25;20.95;;;16.30;69.40;;;;;;4086655;28;20047;-67
2022/01/19 04:16:08;;;;;;;33.08;18.85;;;16.30;69.70;;;;;;4076467;29;20559;-67
2022/01/19 04:18:31;;;;;;;38.13;19.23;;;16.20;69.90;;;;;;4078485;29;20103;-68
2022/01/19 04:20:54;;;;;;;35.17;19.00;;;16.20;70.20;;;;;;4090857;28;20077;-68
2022/01/19 04:23:22;;;;;;;38.17;19.90;;;16.20;70.10;;;;;;4090716;28;20062;-67
2022/01/19 04:25:46;;;;;;;31.63;18.08;;;16.20;70.10;;;;;;4092677;28;20051;-67
2022/01/19 04:28:09;;;;;;;34.63;18.58;;;16.20;70.00;;;;;;4094462;28;20078;-68
2022/01/19 04:30:36;;;;;;;32.78;18.15;;;16.10;70.00;;;;;;4084270;29;20087;-67
2022/01/19 04:33:08;;;;;;;35.20;18.60;;;16.10;70.10;;;;;;4100382;28;20051;-67
2022/01/19 04:35:45;;;;;;;33.47;17.23;;;16.10;70.10;;;;;;4093706;28;20441;-67
2022/01/19 04:38:51;;;;;;;30.63;16.75;;;16.10;70.30;;;;;;4092418;28;20043;-67
2022/01/19 04:44:12;;;;;;;32.60;18.83;;;16.20;70.20;;;;;;4105990;28;20113;-67
2022/01/19 05:01:34;;;;;;;31.63;18.88;;;16.30;69.30;;;;;;4108367;28;20050;-67
2022/01/19 05:03:40;;;;;;;33.70;18.55;;;16.20;69.80;;;;;;4080179;29;20095;-67
2022/01/19 05:06:14;;;;;;;37.70;20.67;;;16.20;70.00;;;;;;4080756;29;20107;-67
2022/01/19 05:08:56;;;;;;;36.28;19.65;;;16.20;69.70;;;;;;4079602;29;20043;-67
2022/01/19 05:14:01;;;;;;;33.75;19.92;;;16.20;69.60;;;;;;4108850;28;20046;-67
2022/01/19 05:16:25;;;;;;;33.40;20.35;;;16.30;69.60;;;;;;4080128;29;20530;-67
2022/01/19 05:18:50;;;;;;;33.10;19.35;;;16.30;69.50;;;;;;4079940;29;20547;-67
2022/01/19 05:21:15;;;;;;;35.17;20.25;;;16.20;69.40;;;;;;4093142;28;20139;-67
2022/01/19 05:23:55;;;;;;;34.80;20.42;;;16.20;69.50;;;;;;4082582;28;20055;-67
2022/01/19 05:26:19;;;;;;;32.72;19.85;;;16.20;69.60;;;;;;4096980;28;20055;-67
2022/01/19 05:28:42;;;;;;;33.28;19.27;;;16.30;69.70;;;;;;4107922;28;20411;-67
2022/01/19 05:31:05;;;;;;;31.63;19.15;;;16.30;69.40;;;;;;4108938;28;20089;-67
2022/01/19 05:33:29;;;;;;;35.88;20.05;;;16.40;69.20;;;;;;4079767;29;20103;-67
2022/01/19 05:35:52;;;;;;;33.00;19.75;;;16.40;69.00;;;;;;4092999;28;20043;-67
2022/01/19 05:38:34;;;;;;;30.25;19.05;;;16.40;68.90;;;;;;4092324;29;20051;-67
2022/01/19 05:41:15;;;;;;;35.95;20.80;;;16.40;69.00;;;;;;4092286;28;20164;-68
2022/01/19 05:43:38;;;;;;;31.58;19.98;;;16.40;69.10;;;;;;4080256;29;20047;-66
2022/01/19 05:46:03;;;;;;;31.40;19.98;;;16.40;69.00;;;;;;4087861;28;20122;-68
2022/01/19 05:48:29;;;;;;;34.05;19.35;;;16.40;68.90;;;;;;4079432;29;20110;-66
2022/01/19 05:50:52;;;;;;;33.83;19.02;;;16.30;69.00;;;;;;4080952;28;20095;-66
2022/01/19 05:53:19;;;;;;;29.83;18.70;;;16.30;69.10;;;;;;4108777;28;20141;-66
2022/01/19 05:55:43;;;;;;;35.13;19.92;;;16.30;69.20;;;;;;4095135;28;20039;-67
2022/01/19 05:58:06;;;;;;;28.80;19.13;;;16.20;69.30;;;;;;4095298;28;20051;-66
2022/01/19 06:00:29;;;;;;;28.60;19.40;;;16.20;69.50;;;;;;4108859;28;20083;-66
2022/01/19 06:02:52;;;;;;;29.30;18.50;;;16.20;70.50;;;;;;4082112;28;20051;-66
2022/01/19 06:05:23;;;;;;;32.10;20.37;;;16.10;69.70;;;;;;4078980;29;20139;-66
2022/01/19 06:08:29;;;;;;;30.73;19.58;;;16.10;70.70;;;;;;4047554;28;20463;-66
2022/01/19 06:10:58;;;;;;;32.10;19.48;;;16.10;69.90;;;;;;4080405;29;20116;-67
2022/01/19 06:13:21;;;;;;;30.00;18.05;;;16.00;70.00;;;;;;4080613;29;20051;-67
2022/01/19 06:15:46;;;;;;;32.42;19.13;;;16.00;70.30;;;;;;4092259;28;20138;-66
2022/01/19 06:18:09;;;;;;;36.30;20.27;;;15.90;70.40;;;;;;4092411;28;20075;-66
2022/01/19 06:20:32;;;;;;;32.63;19.15;;;16.00;70.50;;;;;;4094812;28;20645;-67
2022/01/19 06:22:56;;;;;;;32.28;19.23;;;16.00;70.30;;;;;;4094992;28;20805;-66
2022/01/19 06:25:19;;;;;;;29.67;19.08;;;16.10;70.00;;;;;;4108391;28;20097;-67
2022/01/19 06:27:44;;;;;;;32.30;20.75;;;16.10;69.80;;;;;;4094853;28;20102;-66
2022/01/19 06:30:08;;;;;;;35.75;19.67;;;16.10;70.80;;;;;;4094776;28;20055;-65
2022/01/19 06:32:31;;;;;;;34.28;18.30;;;16.10;69.80;;;;;;4094505;28;20052;-65
2022/01/19 06:34:54;;;;;;;37.78;20.23;;;16.10;69.90;;;;;;4096613;28;20183;-66
2022/01/19 06:37:17;;;;;;;29.25;19.40;;;16.20;70.20;;;;;;4091706;28;20091;-66
2022/01/19 06:40:00;;;;;;;30.30;18.80;;;16.30;69.80;;;;;;4078044;28;20115;-67
2022/01/19 06:42:24;;;;;;;35.92;18.83;;;16.30;69.60;;;;;;4091728;28;20082;-68
2022/01/19 06:44:49;;;;;;;30.35;19.77;;;16.30;69.30;;;;;;4079974;28;20488;-68
2022/01/19 06:47:12;;;;;;;36.83;21.17;;;16.30;69.20;;;;;;4094264;28;20047;-68
2022/01/19 06:49:35;;;;;;;33.85;19.88;;;16.30;69.10;;;;;;4094872;28;20114;-68
2022/01/19 06:51:59;;;;;;;28.25;18.60;;;16.30;69.00;;;;;;4089803;28;20051;-68
2022/01/19 06:54:22;;;;;;;33.03;20.67;;;16.30;69.10;;;;;;4107905;28;20078;-66
2022/01/19 06:56:46;;;;;;;34.35;20.17;;;16.30;69.10;;;;;;4109879;28;20054;-66
2022/01/19 06:59:29;;;;;;;32.92;20.02;;;16.40;69.00;;;;;;4077859;29;20051;-66
2022/01/19 07:02:16;;;;;;;33.90;21.25;;;16.40;68.80;;;;;;4079067;28;20111;-66
2022/01/19 07:04:49;;;;;;;40.47;21.88;;;16.40;69.50;;;;;;4103205;28;20796;-67
2022/01/19 07:07:39;;;;;;;42.67;19.05;;;16.40;68.50;;;;;;4100157;28;20069;-67
2022/01/19 07:10:02;;;;;;;33.05;18.30;;;16.40;68.30;;;;;;4085549;28;20051;-67
2022/01/19 07:12:26;;;;;;;33.17;18.88;;;16.40;67.40;;;;;;4109477;28;20167;-67
2022/01/19 07:14:49;;;;;;;29.45;18.23;;;16.50;67.30;;;;;;4106607;28;20038;-68
2022/01/19 07:17:12;;;;;;;34.25;18.65;;;16.50;66.40;;;;;;4083419;28;20047;-68
2022/01/19 07:19:36;;;;;;;35.28;18.13;;;16.50;66.10;;;;;;4098507;28;20514;-68
2022/01/19 07:22:00;;;;;;;35.10;20.77;;;16.50;66.00;;;;;;4113722;28;20078;-67
2022/01/19 07:24:23;;;;;;;32.65;16.67;;;16.40;65.90;;;;;;4095236;28;20043;-67
2022/01/19 07:26:46;;;;;;;36.42;20.80;;;16.30;66.10;;;;;;4092055;28;20158;-67
2022/01/19 07:29:13;;;;;;;35.55;20.70;;;16.30;66.20;;;;;;4091358;28;20047;-66
2022/01/19 07:31:38;;;;;;;38.08;20.75;;;16.20;66.70;;;;;;4081681;28;20074;-65
2022/01/19 07:34:03;;;;;;;33.08;20.88;;;16.10;67.00;;;;;;4082293;28;20050;-66
2022/01/19 07:36:29;;;;;;;34.70;19.45;;;16.10;67.10;;;;;;4096273;28;20096;-67
2022/01/19 07:38:52;;;;;;;38.42;19.88;;;16.00;67.00;;;;;;4109161;28;20102;-67
2022/01/19 07:41:16;;;;;;;34.58;20.60;;;15.90;67.10;;;;;;4109458;28;20046;-67
2022/01/19 07:43:43;;;;;;;36.22;21.60;;;15.80;67.30;;;;;;4122880;28;20094;-67
2022/01/19 07:46:24;;;;;;;;;;;15.80;67.40;;;;;;4096918;28;20567;-67
2022/01/19 07:49:26;;;;;;;36.20;20.98;;;15.80;67.50;;;;;;4060796;29;20602;-66
2022/01/19 07:52:11;;;;;;;35.88;21.10;;;15.90;67.20;;;;;;4073824;29;20055;-67
2022/01/19 07:55:12;;;;;;;36.30;20.88;;;15.80;66.60;;;;;;4076713;29;20047;-66
2022/01/19 07:57:50;;;;;;;35.65;18.85;;;15.90;66.30;;;;;;4077342;29;20052;-67
2022/01/19 08:00:38;;;;;;;35.70;21.58;;;15.90;66.00;;;;;;4078282;29;20052;-66
2022/01/19 08:03:39;;;;;;;33.03;20.85;;;15.80;65.70;;;;;;4021581;29;20133;-66
2022/01/19 08:06:08;;;;;;;35.05;18.80;;;15.80;65.90;;;;;;4014397;29;20061;-66
2022/01/19 08:08:35;;;;;;;41.55;23.17;;;15.80;66.00;;;;;;4051451;28;20145;-67
2022/01/19 08:10:58;;;;;;;39.42;22.75;;;15.90;65.30;;;;;;4092318;28;20102;-66
2022/01/19 08:13:21;;;;;;;35.83;18.75;;;16.00;65.70;;;;;;4090255;28;20177;-66
2022/01/19 08:15:47;;;;;;;42.10;23.92;;;16.10;64.20;;;;;;4103441;28;20487;-66
2022/01/19 08:18:11;;;;;;;34.17;21.67;;;16.10;63.60;;;;;;4089930;28;20051;-66
2022/01/19 08:20:35;;;;;;;35.42;18.83;;;16.20;63.70;;;;;;4089891;28;20134;-68
2022/01/19 08:22:58;;;;;;;37.50;22.52;;;16.20;63.20;;;;;;4102816;28;20051;-68
2022/01/19 08:25:27;;;;;;;37.45;22.73;;;16.20;62.80;;;;;;4103400;28;20089;-69
2022/01/19 08:27:51;;;;;;;32.10;16.50;;;16.20;63.10;;;;;;4091205;28;20102;-68
2022/01/19 08:30:21;;;;;;;42.95;22.67;;;16.10;63.20;;;;;;4102314;28;20054;-67
2022/01/19 08:32:45;;;;;;;35.92;20.70;;;16.10;63.20;;;;;;4089739;28;20094;-68
2022/01/19 08:35:13;;;;;;;39.72;21.50;;;16.10;62.80;;;;;;4103540;28;20080;-68
2022/01/19 08:37:59;;;;;;;42.47;22.13;;;16.20;62.80;;;;;;4090753;28;20051;-68
2022/01/19 08:40:29;;;;;;;37.65;21.38;;;16.20;62.30;;;;;;4104023;28;20499;-69
2022/01/19 08:43:15;;;;;;;36.40;20.92;;;16.20;62.10;;;;;;4103208;28;20077;-68
2022/01/19 08:45:38;;;;;;;38.95;22.05;;;16.20;61.90;;;;;;4090415;28;20040;-68
2022/01/19 08:48:01;;;;;;;33.13;16.35;;;16.10;61.80;;;;;;4091385;28;20051;-67
2022/01/19 08:50:41;;;;;;;34.72;18.60;;;16.10;61.80;;;;;;4088948;28;20084;-67
2022/01/19 08:53:10;;;;;;;36.15;20.10;;;16.00;62.00;;;;;;4080344;28;20110;-67
2022/01/19 08:55:41;;;;;;;39.80;20.90;;;16.00;61.80;;;;;;4084174;28;20047;-69
2022/01/19 08:58:05;;;;;;;36.22;21.17;;;16.00;61.50;;;;;;4091174;28;20040;-68
2022/01/19 09:00:30;;;;;;;41.88;21.80;;;16.00;61.20;;;;;;4089736;28;20102;-68
2022/01/19 09:02:53;;;;;;;38.25;22.08;;;16.00;61.10;;;;;;4091583;28;20098;-67
2022/01/19 09:05:17;;;;;;;37.05;18.17;;;16.00;62.00;;;;;;4091493;28;20051;-68
2022/01/19 09:07:40;;;;;;;34.22;21.40;;;16.00;61.10;;;;;;4090588;28;20454;-68
2022/01/19 09:10:06;;;;;;;32.40;17.75;;;15.90;61.00;;;;;;4090709;28;20044;-68
2022/01/19 09:12:31;;;;;;;35.92;19.15;;;15.80;61.00;;;;;;4090994;28;20044;-73
2022/01/19 09:14:54;;;;;;;42.80;19.48;;;15.90;61.90;;;;;;4091475;28;20055;-67
2022/01/19 09:17:17;;;;;;;38.00;19.58;;;15.80;61.00;;;;;;4090554;28;20495;-68
2022/01/19 09:19:41;;;;;;;35.53;20.75;;;15.80;61.00;;;;;;4102899;28;20569;-69
2022/01/19 09:22:06;;;;;;;33.85;17.52;;;15.80;61.00;;;;;;4090754;28;20137;-67
2022/01/19 09:24:29;;;;;;;35.90;19.85;;;15.80;61.10;;;;;;4090845;28;20055;-68
2022/01/19 09:26:52;;;;;;;40.35;20.70;;;15.80;61.40;;;;;;4090539;28;20059;-68
2022/01/19 09:29:17;;;;;;;41.65;21.92;;;15.70;61.90;;;;;;4090698;28;20043;-69
2022/01/19 09:31:41;;;;;;;40.80;22.02;;;15.70;62.40;;;;;;4090853;28;20051;-68
2022/01/19 09:34:08;;;;;;;35.05;21.08;;;15.70;63.00;;;;;;4102795;28;20054;-68
2022/01/19 09:36:33;;;;;;;34.63;20.23;;;15.70;63.40;;;;;;4091006;28;20981;-68
2022/01/19 09:38:57;;;;;;;36.03;21.48;;;15.70;63.60;;;;;;4091677;28;20048;-67
2022/01/19 09:41:21;;;;;;;39.40;22.83;;;15.80;63.80;;;;;;4093617;28;20090;-68
2022/01/19 09:43:44;;;;;;;41.53;21.27;;;15.90;63.60;;;;;;4094329;28;20722;-67
2022/01/19 09:46:08;;;;;;;39.90;21.75;;;16.00;63.50;;;;;;4092389;28;20925;-68
2022/01/19 09:48:31;;;;;;;30.45;19.55;;;16.00;63.40;;;;;;4093285;28;20110;-68
2022/01/19 09:50:56;;;;;;;36.78;20.40;;;16.00;63.50;;;;;;4094471;28;20047;-68
2022/01/19 09:53:19;;;;;;;36.08;19.92;;;16.00;63.50;;;;;;4094163;28;20106;-66
2022/01/19 09:55:42;;;;;;;44.58;21.52;;;16.00;64.50;;;;;;4093878;28;20113;-65
2022/01/19 09:58:05;;;;;;;33.75;20.17;;;16.00;63.90;;;;;;4093954;28;20101;-66
2022/01/19 10:00:29;;;;;;;37.25;22.70;;;15.90;64.00;;;;;;4093594;28;20087;-65
2022/01/19 10:03:14;;;;;;;37.22;19.75;;;15.90;64.20;;;;;;4093319;28;20503;-65
2022/01/19 10:05:42;;;;;;;34.88;19.05;;;15.80;64.50;;;;;;4092852;28;20047;-65
2022/01/19 10:08:05;;;;;;;33.35;20.00;;;15.80;64.80;;;;;;4093301;28;20047;-65
2022/01/19 10:10:28;;;;;;;38.80;20.98;;;15.70;64.90;;;;;;4094077;28;20051;-65
2022/01/19 10:18:18;;;;;;;37.05;21.15;;;15.70;65.20;;;;;;4104907;28;20042;-65
2022/01/19 10:20:42;;;;;;;40.55;21.15;;;15.70;65.30;;;;;;4093747;28;20060;-65
2022/01/19 10:23:05;;;;;;;39.13;18.25;;;15.70;65.40;;;;;;4093962;28;20043;-65
2022/01/19 10:25:47;;;;;;;40.53;21.00;;;15.70;64.70;;;;;;4093783;28;20488;-65
2022/01/19 10:28:10;;;;;;;46.90;21.50;;;15.70;65.30;;;;;;4092170;28;20484;-65
2022/01/19 10:30:35;;;;;;;34.92;16.52;;;15.60;64.20;;;;;;4092990;28;20753;-65
2022/01/19 10:33:02;;;;;;;35.22;21.20;;;15.60;63.90;;;;;;4092851;28;20051;-66
2022/01/19 10:35:30;;;;;;;38.28;21.17;;;15.70;63.40;;;;;;4092861;28;20055;-65
2022/01/19 10:38:11;;;;;;;40.58;22.08;;;15.70;62.80;;;;;;4094091;28;20055;-64
2022/01/19 10:40:35;;;;;;;38.90;23.00;;;15.90;62.30;;;;;;4092345;28;20372;-65
2022/01/19 10:42:58;;;;;;;39.80;23.48;;;15.90;62.50;;;;;;4093220;28;20051;-65
2022/01/19 10:45:21;;;;;;;42.45;21.00;;;15.90;62.80;;;;;;4093323;28;20047;-65
2022/01/19 10:47:50;;;;;;;39.67;22.13;;;15.90;63.90;;;;;;4092960;28;20170;-65
2022/01/19 10:50:15;;;;;;;40.13;23.48;;;15.90;63.30;;;;;;4093120;28;20102;-65
2022/01/19 10:52:43;;;;;;;39.35;22.58;;;15.90;63.60;;;;;;4092977;28;20047;-65
2022/01/19 10:55:09;;;;;;;41.40;23.88;;;15.80;63.80;;;;;;4093366;28;20117;-66
2022/01/19 10:57:35;;;;;;;41.80;23.20;;;15.80;64.00;;;;;;4092775;28;20050;-65
2022/01/19 11:00:20;;;;;;;36.45;21.83;;;15.80;64.60;;;;;;4093232;28;20110;-65
2022/01/19 11:02:44;;;;;;;37.85;22.50;;;15.70;64.60;;;;;;4092356;28;20051;-65
2022/01/19 11:05:08;;;;;;;34.83;21.73;;;15.80;64.80;;;;;;4092882;28;20051;-65
2022/01/19 11:07:31;;;;;;;36.30;22.60;;;15.80;64.80;;;;;;4092171;28;20109;-65
2022/01/19 11:10:07;;;;;;;38.30;22.63;;;15.80;65.00;;;;;;4092505;28;20121;-66
2022/01/19 11:12:38;;;;;;;35.03;21.63;;;15.70;65.10;;;;;;4092452;28;20106;-66
2022/01/19 11:15:02;;;;;;;39.72;22.83;;;15.70;65.40;;;;;;4092130;28;20102;-66
2022/01/19 11:17:31;;;;;;;34.35;21.42;;;15.70;65.60;;;;;;4092880;28;20050;-66
2022/01/19 11:19:54;;;;;;;40.60;22.02;;;15.70;65.60;;;;;;4092600;28;20106;-65
2022/01/19 11:22:27;;;;;;;37.28;22.48;;;15.70;65.60;;;;;;4104499;28;20060;-64
2022/01/19 11:25:03;;;;;;;44.05;25.48;;;15.80;65.50;;;;;;4091703;28;20180;-65
2022/01/19 11:27:28;;;;;;;39.33;24.00;;;15.80;65.40;;;;;;4091112;28;20051;-65
2022/01/19 11:30:14;;;;;;;38.05;22.83;;;15.70;65.50;;;;;;4092493;28;20495;-65
2022/01/19 11:32:37;;;;;;;42.33;23.73;;;15.70;65.60;;;;;;4091617;28;20492;-66
2022/01/19 11:35:03;;;;;;;43.22;25.88;;;15.70;65.90;;;;;;4092069;28;20055;-66
2022/01/19 11:37:36;;;;;;;48.50;25.85;;;15.70;66.10;;;;;;4092367;28;20059;-66
2022/01/19 11:40:07;;;;;;;41.30;24.85;;;15.70;66.00;;;;;;4091880;28;20444;-66
2022/01/19 11:42:30;;;;;;;43.38;25.00;;;15.70;66.00;;;;;;4092346;28;20055;-66
2022/01/19 11:44:54;;;;;;;54.03;28.83;;;15.70;66.10;;;;;;4092627;28;20055;-66
2022/01/19 11:47:22;;;;;;;49.67;28.52;;;15.70;66.20;;;;;;4092101;28;20043;-66
2022/01/19 11:49:48;;;;;;;46.38;24.80;;;15.70;66.40;;;;;;4092298;28;20102;-66
2022/01/19 11:52:11;;;;;;;55.78;30.83;;;15.60;66.50;;;;;;4092540;28;20634;-66
2022/01/19 11:54:35;;;;;;;51.40;29.33;;;15.60;66.50;;;;;;4092266;28;20109;-66
2022/01/19 11:57:13;;;;;;;62.78;34.78;;;15.60;66.60;;;;;;4092652;28;20106;-66
2022/01/19 12:00:07;;;;;;;41.80;26.23;;;15.70;66.50;;;;;;4091203;28;20095;-66
2022/01/19 12:02:37;;;;;;;57.17;30.75;;;15.70;66.40;;;;;;4091294;28;20090;-66
2022/01/19 12:05:26;;;;;;;41.70;26.98;;;15.70;67.30;;;;;;4090816;28;20051;-66
2022/01/19 12:07:52;;;;;;;50.38;28.30;;;15.60;66.30;;;;;;4103136;28;20043;-66
2022/01/19 12:10:20;;;;;;;56.10;31.77;;;15.60;66.30;;;;;;4091922;28;20566;-66
2022/01/19 12:12:55;;;;;;;54.38;29.52;;;15.60;66.50;;;;;;4091420;28;20104;-66
2022/01/19 12:15:49;;;;;;;49.08;27.63;;;15.70;66.40;;;;;;4090866;28;20051;-67
2022/01/19 12:18:40;;;;;;;48.20;28.60;;;15.80;66.00;;;;;;4091476;28;20374;-67
2022/01/19 12:21:03;;;;;;;55.22;32.17;;;15.90;65.90;;;;;;4090977;28;20626;-66
2022/01/19 12:23:30;;;;;;;53.63;31.80;;;15.80;65.80;;;;;;4091181;28;20059;-66
2022/01/19 12:25:54;;;;;;;53.75;29.83;;;15.80;65.80;;;;;;4092048;28;20051;-66
2022/01/19 12:28:39;;;;;;;47.15;28.73;;;15.80;67.00;;;;;;4092307;28;20661;-66
2022/01/19 12:31:34;;;;;;;46.58;26.60;;;15.80;66.20;;;;;;4091430;28;21047;-65
2022/01/19 12:34:19;;;;;;;46.83;27.27;;;15.80;66.30;;;;;;4091527;28;20090;-67
2022/01/19 12:36:44;;;;;;;54.17;29.23;;;15.90;66.30;;;;;;4091235;28;20047;-67
2022/01/19 12:39:36;;;;;;;47.97;28.83;;;15.80;66.20;;;;;;4091512;28;20087;-66
2022/01/19 12:42:01;;;;;;;47.50;25.27;;;15.80;66.10;;;;;;4091127;28;20054;-66
2022/01/19 12:44:44;;;;;;;60.72;29.73;;;15.80;66.30;;;;;;4091997;28;20047;-66
2022/01/19 12:47:45;;;;;;;44.60;25.58;;;15.80;66.30;;;;;;4091434;28;20686;-66
2022/01/19 12:50:51;;;;;;;47.40;25.67;;;15.80;66.00;;;;;;4089434;28;20063;-66
2022/01/19 12:53:24;;;;;;;47.30;25.35;;;15.80;66.00;;;;;;4090491;28;20051;-66
2022/01/19 12:55:50;;;;;;;45.45;25.77;;;15.80;66.10;;;;;;4091242;28;20051;-66
2022/01/19 12:58:16;;;;;;;44.40;24.92;;;15.80;66.20;;;;;;4091876;28;20141;-66
2022/01/19 13:00:41;;;;;;;45.17;23.83;;;15.80;66.00;;;;;;4091261;28;20101;-66
2022/01/19 13:03:14;;;;;;;43.65;24.83;;;15.90;65.90;;;;;;4091626;28;20059;-66
2022/01/19 13:05:46;;;;;;;44.38;23.55;;;15.90;65.70;;;;;;4089591;28;20114;-66
2022/01/19 13:08:10;;;;;;;38.95;23.95;;;15.90;65.60;;;;;;4091542;28;20435;-66
2022/01/19 13:10:41;;;;;;;43.30;21.65;;;15.90;65.60;;;;;;4091636;28;20094;-66
2022/01/19 13:13:11;;;;;;;44.85;24.52;;;15.80;65.60;;;;;;4091774;28;20051;-66
2022/01/19 13:15:42;;;;;;;38.75;21.48;;;15.80;65.70;;;;;;4093949;28;20051;-66
2022/01/19 13:18:06;;;;;;;42.63;22.90;;;15.80;65.70;;;;;;4094149;28;20043;-66
2022/01/19 13:20:29;;;;;;;43.70;23.88;;;15.80;65.70;;;;;;4094222;28;20110;-66
2022/01/19 13:22:54;;;;;;;40.70;21.95;;;15.80;65.50;;;;;;4094371;28;20055;-66
2022/01/19 13:25:21;;;;;;;44.75;22.55;;;15.80;65.50;;;;;;4094124;28;20542;-67
2022/01/19 13:27:45;;;;;;;39.20;23.00;;;15.90;65.50;;;;;;4094538;28;21659;-66
2022/01/19 13:30:12;;;;;;;40.33;21.88;;;15.80;65.40;;;;;;4094616;28;20074;-66
2022/01/19 13:32:38;;;;;;;42.15;22.38;;;15.80;65.30;;;;;;4092591;28;20086;-66
2022/01/19 13:35:05;;;;;;;38.55;22.20;;;15.80;65.40;;;;;;4094060;28;20039;-67
2022/01/19 13:37:33;;;;;;;42.10;23.23;;;15.80;65.40;;;;;;4094523;28;20055;-66